Terminal Aerodrome Forecast
Issued by NWS Burlington, VT

Home | Current Version | Previous Version | Text Only | Print | Product List | Glossary On
Versions: 1 2 3 4 5 6 7 8 9 10 11 12
000
FTUS41 KBTV 172326
TAFBTV
TAF
KBTV 172326Z 1800/1824 27008KT P6SM SKC
     FM180130 32010KT P6SM SCT090 BKN150
     FM180300 VRB03KT P6SM SKC
     FM181300 17009KT P6SM SCT080
     FM181600 27013G26KT P6SM VCSH BKN060
     FM182100 34012G22KT P6SM SCT050=

USA.gov is the U.S. government's official web portal to all federal, state and local government web resources and services.